sensor_id;sensor_type;location;lat;lon;timestamp;temperature;humidity
8593;DHT22;4334;49.982;8.398;2022-12-24T00:00:56;11.20;99.90
8593;DHT22;4334;49.982;8.398;2022-12-24T00:03:23;11.20;99.90
8593;DHT22;4334;49.982;8.398;2022-12-24T00:05:50;14.40;99.90
8593;DHT22;4334;49.982;8.398;2022-12-24T00:08:17;11.20;99.90
8593;DHT22;4334;49.982;8.398;2022-12-24T00:10:47;14.20;99.90
8593;DHT22;4334;49.982;8.398;2022-12-24T00:13:15;11.30;99.90
8593;DHT22;4334;49.982;8.398;2022-12-24T00:15:42;11.30;99.90
8593;DHT22;4334;49.982;8.398;2022-12-24T00:18:09;14.80;99.90
8593;DHT22;4334;49.982;8.398;2022-12-24T00:20:35;11.20;99.90
8593;DHT22;4334;49.982;8.398;2022-12-24T00:23:02;11.20;99.90
8593;DHT22;4334;49.982;8.398;2022-12-24T00:25:29;11.10;99.90
8593;DHT22;4334;49.982;8.398;2022-12-24T00:27:56;12.00;99.90
8593;DHT22;4334;49.982;8.398;2022-12-24T00:30:24;11.10;99.90
8593;DHT22;4334;49.982;8.398;2022-12-24T00:32:50;11.00;99.90
8593;DHT22;4334;49.982;8.398;2022-12-24T00:35:17;11.00;99.90
8593;DHT22;4334;49.982;8.398;2022-12-24T00:37:46;11.00;99.90
8593;DHT22;4334;49.982;8.398;2022-12-24T00:40:13;11.00;99.90
8593;DHT22;4334;49.982;8.398;2022-12-24T00:42:39;11.00;99.90
8593;DHT22;4334;49.982;8.398;2022-12-24T00:45:07;10.90;99.90
8593;DHT22;4334;49.982;8.398;2022-12-24T00:47:36;11.00;99.90
8593;DHT22;4334;49.982;8.398;2022-12-24T00:50:03;11.00;99.90
8593;DHT22;4334;49.982;8.398;2022-12-24T00:52:30;11.00;99.90
8593;DHT22;4334;49.982;8.398;2022-12-24T00:54:57;11.00;99.90
8593;DHT22;4334;49.982;8.398;2022-12-24T00:57:23;11.00;99.90
8593;DHT22;4334;49.982;8.398;2022-12-24T00:59:50;11.00;99.90
8593;DHT22;4334;49.982;8.398;2022-12-24T01:02:17;11.00;99.90
8593;DHT22;4334;49.982;8.398;2022-12-24T01:04:45;10.90;99.90
8593;DHT22;4334;49.982;8.398;2022-12-24T01:07:30;10.80;99.90
8593;DHT22;4334;49.982;8.398;2022-12-24T01:09:56;12.00;99.90
8593;DHT22;4334;49.982;8.398;2022-12-24T01:12:23;10.80;99.90
8593;DHT22;4334;49.982;8.398;2022-12-24T01:14:50;10.70;99.90
8593;DHT22;4334;49.982;8.398;2022-12-24T01:17:17;10.80;99.90
8593;DHT22;4334;49.982;8.398;2022-12-24T01:19:45;10.60;99.90
8593;DHT22;4334;49.982;8.398;2022-12-24T01:22:12;10.60;99.90
8593;DHT22;4334;49.982;8.398;2022-12-24T01:24:39;10.70;99.90
8593;DHT22;4334;49.982;8.398;2022-12-24T01:27:07;10.60;99.90
8593;DHT22;4334;49.982;8.398;2022-12-24T01:29:33;10.70;99.90
8593;DHT22;4334;49.982;8.398;2022-12-24T01:32:00;10.60;99.90
8593;DHT22;4334;49.982;8.398;2022-12-24T01:34:27;12.30;99.90
8593;DHT22;4334;49.982;8.398;2022-12-24T01:36:55;10.40;99.90
8593;DHT22;4334;49.982;8.398;2022-12-24T01:39:21;10.40;99.90
8593;DHT22;4334;49.982;8.398;2022-12-24T01:41:48;10.30;99.90
8593;DHT22;4334;49.982;8.398;2022-12-24T01:44:34;10.20;99.90
8593;DHT22;4334;49.982;8.398;2022-12-24T01:47:06;10.20;99.90
8593;DHT22;4334;49.982;8.398;2022-12-24T01:49:34;10.10;99.90
8593;DHT22;4334;49.982;8.398;2022-12-24T01:52:06;10.10;99.90
8593;DHT22;4334;49.982;8.398;2022-12-24T01:54:37;10.10;99.90
8593;DHT22;4334;49.982;8.398;2022-12-24T01:57:09;10.00;99.90
8593;DHT22;4334;49.982;8.398;2022-12-24T01:59:40;9.90;99.90
8593;DHT22;4334;49.982;8.398;2022-12-24T02:02:09;9.80;99.90
8593;DHT22;4334;49.982;8.398;2022-12-24T02:04:41;9.80;99.90
8593;DHT22;4334;49.982;8.398;2022-12-24T02:07:11;9.60;99.90
8593;DHT22;4334;49.982;8.398;2022-12-24T02:09:38;9.60;99.90
8593;DHT22;4334;49.982;8.398;2022-12-24T02:12:06;9.60;99.90
8593;DHT22;4334;49.982;8.398;2022-12-24T02:14:34;9.50;99.90
8593;DHT22;4334;49.982;8.398;2022-12-24T02:17:09;9.60;99.90
8593;DHT22;4334;49.982;8.398;2022-12-24T02:20:01;9.70;99.90
8593;DHT22;4334;49.982;8.398;2022-12-24T02:22:45;9.80;99.90
8593;DHT22;4334;49.982;8.398;2022-12-24T02:25:32;9.90;99.90
8593;DHT22;4334;49.982;8.398;2022-12-24T02:28:12;9.80;99.90
8593;DHT22;4334;49.982;8.398;2022-12-24T02:30:44;12.40;99.90
8593;DHT22;4334;49.982;8.398;2022-12-24T02:33:19;10.00;99.90
8593;DHT22;4334;49.982;8.398;2022-12-24T02:35:56;10.00;99.90
8593;DHT22;4334;49.982;8.398;2022-12-24T02:38:27;10.10;99.90
8593;DHT22;4334;49.982;8.398;2022-12-24T02:40:58;10.10;99.90
8593;DHT22;4334;49.982;8.398;2022-12-24T02:43:30;10.20;99.90
8593;DHT22;4334;49.982;8.398;2022-12-24T02:46:02;10.20;99.90
8593;DHT22;4334;49.982;8.398;2022-12-24T02:48:31;10.20;99.90
8593;DHT22;4334;49.982;8.398;2022-12-24T02:51:02;10.20;99.90
8593;DHT22;4334;49.982;8.398;2022-12-24T02:53:30;10.20;99.90
8593;DHT22;4334;49.982;8.398;2022-12-24T02:58:59;10.20;99.90
8593;DHT22;4334;49.982;8.398;2022-12-24T03:01:41;10.20;99.90
8593;DHT22;4334;49.982;8.398;2022-12-24T03:04:18;10.20;99.90
8593;DHT22;4334;49.982;8.398;2022-12-24T03:07:07;10.30;99.90
8593;DHT22;4334;49.982;8.398;2022-12-24T03:09:48;12.90;99.90
8593;DHT22;4334;49.982;8.398;2022-12-24T03:12:20;10.30;99.90
8593;DHT22;4334;49.982;8.398;2022-12-24T03:14:49;10.30;99.90
8593;DHT22;4334;49.982;8.398;2022-12-24T03:17:18;10.20;99.90
8593;DHT22;4334;49.982;8.398;2022-12-24T03:19:45;10.20;99.90
8593;DHT22;4334;49.982;8.398;2022-12-24T03:22:13;10.30;99.90
8593;DHT22;4334;49.982;8.398;2022-12-24T03:24:41;10.40;99.90
8593;DHT22;4334;49.982;8.398;2022-12-24T03:27:08;10.50;99.90
8593;DHT22;4334;49.982;8.398;2022-12-24T03:29:38;10.40;99.90
8593;DHT22;4334;49.982;8.398;2022-12-24T03:32:05;10.40;99.90
8593;DHT22;4334;49.982;8.398;2022-12-24T03:34:33;10.40;99.90
8593;DHT22;4334;49.982;8.398;2022-12-24T03:37:00;10.30;99.90
8593;DHT22;4334;49.982;8.398;2022-12-24T03:39:27;10.30;99.90
8593;DHT22;4334;49.982;8.398;2022-12-24T03:41:53;11.50;99.90
8593;DHT22;4334;49.982;8.398;2022-12-24T03:44:20;10.20;99.90
8593;DHT22;4334;49.982;8.398;2022-12-24T03:46:47;10.70;99.90
8593;DHT22;4334;49.982;8.398;2022-12-24T03:49:13;10.10;99.90
8593;DHT22;4334;49.982;8.398;2022-12-24T03:51:42;10.20;99.90
8593;DHT22;4334;49.982;8.398;2022-12-24T03:54:08;10.10;99.90
8593;DHT22;4334;49.982;8.398;2022-12-24T03:56:35;10.20;99.90
8593;DHT22;4334;49.982;8.398;2022-12-24T03:59:02;10.10;99.90
8593;DHT22;4334;49.982;8.398;2022-12-24T04:01:28;10.10;99.90
8593;DHT22;4334;49.982;8.398;2022-12-24T04:03:55;10.20;99.90
8593;DHT22;4334;49.982;8.398;2022-12-24T04:06:22;10.20;99.90
8593;DHT22;4334;49.982;8.398;2022-12-24T04:08:50;10.30;99.90
8593;DHT22;4334;49.982;8.398;2022-12-24T04:11:17;10.30;99.90
8593;DHT22;4334;49.982;8.398;2022-12-24T04:13:44;10.30;99.90
8593;DHT22;4334;49.982;8.398;2022-12-24T04:16:13;12.40;99.90
8593;DHT22;4334;49.982;8.398;2022-12-24T04:18:40;10.30;99.90
8593;DHT22;4334;49.982;8.398;2022-12-24T04:21:07;10.30;99.90
8593;DHT22;4334;49.982;8.398;2022-12-24T04:23:35;10.30;99.90
8593;DHT22;4334;49.982;8.398;2022-12-24T04:26:05;12.30;99.90
8593;DHT22;4334;49.982;8.398;2022-12-24T04:28:33;10.40;99.90
8593;DHT22;4334;49.982;8.398;2022-12-24T04:31:02;10.40;99.90
8593;DHT22;4334;49.982;8.398;2022-12-24T04:33:29;10.30;99.90
8593;DHT22;4334;49.982;8.398;2022-12-24T04:35:57;10.40;99.90
8593;DHT22;4334;49.982;8.398;2022-12-24T04:38:24;10.40;99.90
8593;DHT22;4334;49.982;8.398;2022-12-24T04:40:57;10.40;99.90
8593;DHT22;4334;49.982;8.398;2022-12-24T04:43:26;10.40;99.90
8593;DHT22;4334;49.982;8.398;2022-12-24T04:45:52;10.40;99.90
8593;DHT22;4334;49.982;8.398;2022-12-24T04:48:19;10.40;99.90
8593;DHT22;4334;49.982;8.398;2022-12-24T04:50:46;10.40;99.90
8593;DHT22;4334;49.982;8.398;2022-12-24T04:53:13;10.30;99.90
8593;DHT22;4334;49.982;8.398;2022-12-24T04:55:43;10.30;99.90
8593;DHT22;4334;49.982;8.398;2022-12-24T04:58:10;10.20;99.90
8593;DHT22;4334;49.982;8.398;2022-12-24T05:00:38;10.20;99.90
8593;DHT22;4334;49.982;8.398;2022-12-24T05:03:05;10.10;99.90
8593;DHT22;4334;49.982;8.398;2022-12-24T05:05:31;12.10;99.90
8593;DHT22;4334;49.982;8.398;2022-12-24T05:07:58;10.00;99.90
8593;DHT22;4334;49.982;8.398;2022-12-24T05:10:25;10.00;99.90
8593;DHT22;4334;49.982;8.398;2022-12-24T05:12:52;9.90;99.90
8593;DHT22;4334;49.982;8.398;2022-12-24T05:15:18;9.90;99.90
8593;DHT22;4334;49.982;8.398;2022-12-24T05:17:47;10.00;99.90
8593;DHT22;4334;49.982;8.398;2022-12-24T05:20:13;9.80;99.90
8593;DHT22;4334;49.982;8.398;2022-12-24T05:22:40;9.90;99.90
8593;DHT22;4334;49.982;8.398;2022-12-24T05:25:25;9.80;99.90
8593;DHT22;4334;49.982;8.398;2022-12-24T05:28:10;9.80;99.90
8593;DHT22;4334;49.982;8.398;2022-12-24T05:30:37;12.20;99.90
8593;DHT22;4334;49.982;8.398;2022-12-24T05:33:05;9.90;99.90
8593;DHT22;4334;49.982;8.398;2022-12-24T05:35:31;9.90;99.90
8593;DHT22;4334;49.982;8.398;2022-12-24T05:37:58;10.00;99.90
8593;DHT22;4334;49.982;8.398;2022-12-24T05:40:25;10.00;99.90
8593;DHT22;4334;49.982;8.398;2022-12-24T05:42:52;9.90;99.90
8593;DHT22;4334;49.982;8.398;2022-12-24T05:45:18;9.90;99.90
8593;DHT22;4334;49.982;8.398;2022-12-24T05:47:45;9.90;99.90
8593;DHT22;4334;49.982;8.398;2022-12-24T05:50:13;9.80;99.90
8593;DHT22;4334;49.982;8.398;2022-12-24T05:52:40;11.20;99.90
8593;DHT22;4334;49.982;8.398;2022-12-24T05:55:07;9.90;99.90
8593;DHT22;4334;49.982;8.398;2022-12-24T05:57:34;9.80;99.90
8593;DHT22;4334;49.982;8.398;2022-12-24T06:00:01;9.80;99.90
8593;DHT22;4334;49.982;8.398;2022-12-24T06:02:28;9.70;99.90
8593;DHT22;4334;49.982;8.398;2022-12-24T06:04:54;9.70;99.90
8593;DHT22;4334;49.982;8.398;2022-12-24T06:07:22;9.70;99.90
8593;DHT22;4334;49.982;8.398;2022-12-24T06:09:49;9.60;99.90
8593;DHT22;4334;49.982;8.398;2022-12-24T06:12:16;9.60;99.90
8593;DHT22;4334;49.982;8.398;2022-12-24T06:14:43;9.60;99.90
8593;DHT22;4334;49.982;8.398;2022-12-24T06:17:09;9.60;99.90
8593;DHT22;4334;49.982;8.398;2022-12-24T06:19:36;9.60;99.90
8593;DHT22;4334;49.982;8.398;2022-12-24T06:22:03;9.60;99.90
8593;DHT22;4334;49.982;8.398;2022-12-24T06:24:31;9.70;99.90
8593;DHT22;4334;49.982;8.398;2022-12-24T06:26:57;9.70;99.90
8593;DHT22;4334;49.982;8.398;2022-12-24T06:29:24;9.70;99.90
8593;DHT22;4334;49.982;8.398;2022-12-24T06:31:51;9.60;99.90
8593;DHT22;4334;49.982;8.398;2022-12-24T06:34:18;9.60;99.90
8593;DHT22;4334;49.982;8.398;2022-12-24T06:36:44;9.70;99.90
8593;DHT22;4334;49.982;8.398;2022-12-24T06:39:11;9.70;99.90
8593;DHT22;4334;49.982;8.398;2022-12-24T06:41:39;9.80;99.90
8593;DHT22;4334;49.982;8.398;2022-12-24T06:44:07;9.80;99.90
8593;DHT22;4334;49.982;8.398;2022-12-24T06:46:34;9.80;99.90
8593;DHT22;4334;49.982;8.398;2022-12-24T06:49:00;9.80;99.90
8593;DHT22;4334;49.982;8.398;2022-12-24T06:51:27;9.90;99.90
8593;DHT22;4334;49.982;8.398;2022-12-24T06:53:54;9.90;99.90
8593;DHT22;4334;49.982;8.398;2022-12-24T06:56:20;9.90;99.90
8593;DHT22;4334;49.982;8.398;2022-12-24T06:58:49;9.90;99.90
8593;DHT22;4334;49.982;8.398;2022-12-24T07:01:17;9.90;99.90
8593;DHT22;4334;49.982;8.398;2022-12-24T07:03:44;9.90;99.90
8593;DHT22;4334;49.982;8.398;2022-12-24T07:06:15;9.80;99.90
8593;DHT22;4334;49.982;8.398;2022-12-24T07:08:42;9.80;99.90
8593;DHT22;4334;49.982;8.398;2022-12-24T07:11:10;9.70;99.90
8593;DHT22;4334;49.982;8.398;2022-12-24T07:13:36;9.70;99.90
8593;DHT22;4334;49.982;8.398;2022-12-24T07:16:05;9.70;99.90
8593;DHT22;4334;49.982;8.398;2022-12-24T07:18:32;9.70;99.90
8593;DHT22;4334;49.982;8.398;2022-12-24T07:20:59;9.70;99.90
8593;DHT22;4334;49.982;8.398;2022-12-24T07:23:26;9.70;99.90
8593;DHT22;4334;49.982;8.398;2022-12-24T07:25:52;9.70;99.90
8593;DHT22;4334;49.982;8.398;2022-12-24T07:28:19;9.70;99.90
8593;DHT22;4334;49.982;8.398;2022-12-24T07:30:47;9.70;99.90
8593;DHT22;4334;49.982;8.398;2022-12-24T07:33:15;9.70;99.90
8593;DHT22;4334;49.982;8.398;2022-12-24T07:35:42;9.70;99.90
8593;DHT22;4334;49.982;8.398;2022-12-24T07:38:09;9.80;99.90
8593;DHT22;4334;49.982;8.398;2022-12-24T07:40:35;13.50;99.90
8593;DHT22;4334;49.982;8.398;2022-12-24T07:43:02;9.90;99.90
8593;DHT22;4334;49.982;8.398;2022-12-24T07:45:29;11.60;99.90
8593;DHT22;4334;49.982;8.398;2022-12-24T07:47:55;10.10;99.90
8593;DHT22;4334;49.982;8.398;2022-12-24T07:50:24;10.10;99.90
8593;DHT22;4334;49.982;8.398;2022-12-24T07:52:51;12.10;99.90
8593;DHT22;4334;49.982;8.398;2022-12-24T07:55:17;10.20;99.90
8593;DHT22;4334;49.982;8.398;2022-12-24T07:57:44;10.30;99.90
8593;DHT22;4334;49.982;8.398;2022-12-24T08:00:12;10.30;99.90
8593;DHT22;4334;49.982;8.398;2022-12-24T08:02:38;10.30;99.90
8593;DHT22;4334;49.982;8.398;2022-12-24T08:05:06;10.40;99.90
8593;DHT22;4334;49.982;8.398;2022-12-24T08:07:35;10.40;99.90
8593;DHT22;4334;49.982;8.398;2022-12-24T08:10:01;10.40;99.90
8593;DHT22;4334;49.982;8.398;2022-12-24T08:12:28;10.40;99.90
8593;DHT22;4334;49.982;8.398;2022-12-24T08:14:55;10.40;99.90
8593;DHT22;4334;49.982;8.398;2022-12-24T08:17:22;10.50;99.90
8593;DHT22;4334;49.982;8.398;2022-12-24T08:19:48;10.40;99.90
8593;DHT22;4334;49.982;8.398;2022-12-24T08:22:15;10.40;99.90
8593;DHT22;4334;49.982;8.398;2022-12-24T08:24:43;10.40;99.90
8593;DHT22;4334;49.982;8.398;2022-12-24T08:27:10;10.40;99.90
8593;DHT22;4334;49.982;8.398;2022-12-24T08:29:37;10.30;99.90
8593;DHT22;4334;49.982;8.398;2022-12-24T08:32:04;10.20;99.90
8593;DHT22;4334;49.982;8.398;2022-12-24T08:34:31;10.10;99.90
8593;DHT22;4334;49.982;8.398;2022-12-24T08:36:57;10.10;99.90
8593;DHT22;4334;49.982;8.398;2022-12-24T08:39:24;10.10;99.90
8593;DHT22;4334;49.982;8.398;2022-12-24T08:41:52;11.10;99.90
8593;DHT22;4334;49.982;8.398;2022-12-24T08:44:19;10.00;99.90
8593;DHT22;4334;49.982;8.398;2022-12-24T08:46:46;11.10;99.90
8593;DHT22;4334;49.982;8.398;2022-12-24T08:49:12;9.80;99.90
8593;DHT22;4334;49.982;8.398;2022-12-24T08:51:39;9.70;99.90
8593;DHT22;4334;49.982;8.398;2022-12-24T08:54:06;9.50;99.90
8593;DHT22;4334;49.982;8.398;2022-12-24T08:56:33;10.40;99.90
8593;DHT22;4334;49.982;8.398;2022-12-24T08:59:01;9.30;99.90
8593;DHT22;4334;49.982;8.398;2022-12-24T09:01:28;9.40;99.90
8593;DHT22;4334;49.982;8.398;2022-12-24T09:03:56;9.30;99.90
8593;DHT22;4334;49.982;8.398;2022-12-24T09:06:23;9.30;99.90
8593;DHT22;4334;49.982;8.398;2022-12-24T09:08:49;9.30;99.90
8593;DHT22;4334;49.982;8.398;2022-12-24T09:11:17;9.20;99.90
8593;DHT22;4334;49.982;8.398;2022-12-24T09:13:45;9.30;99.90
8593;DHT22;4334;49.982;8.398;2022-12-24T09:16:13;9.30;99.90
8593;DHT22;4334;49.982;8.398;2022-12-24T09:18:40;9.30;99.90
8593;DHT22;4334;49.982;8.398;2022-12-24T09:21:08;9.40;99.90
8593;DHT22;4334;49.982;8.398;2022-12-24T09:23:39;9.30;99.90
8593;DHT22;4334;49.982;8.398;2022-12-24T09:26:07;9.40;99.90
8593;DHT22;4334;49.982;8.398;2022-12-24T09:28:34;9.50;99.90
8593;DHT22;4334;49.982;8.398;2022-12-24T09:31:02;9.50;99.90
8593;DHT22;4334;49.982;8.398;2022-12-24T09:33:32;9.60;99.90
8593;DHT22;4334;49.982;8.398;2022-12-24T09:35:59;9.70;99.90
8593;DHT22;4334;49.982;8.398;2022-12-24T09:38:26;9.80;99.90
8593;DHT22;4334;49.982;8.398;2022-12-24T09:40:54;9.80;99.90
8593;DHT22;4334;49.982;8.398;2022-12-24T09:43:23;12.70;99.90
8593;DHT22;4334;49.982;8.398;2022-12-24T09:46:00;10.00;99.90
8593;DHT22;4334;49.982;8.398;2022-12-24T09:48:33;10.00;99.90
8593;DHT22;4334;49.982;8.398;2022-12-24T09:51:04;10.00;99.90
8593;DHT22;4334;49.982;8.398;2022-12-24T09:53:36;10.10;99.90
8593;DHT22;4334;49.982;8.398;2022-12-24T09:56:11;12.20;99.90
8593;DHT22;4334;49.982;8.398;2022-12-24T09:58:40;10.30;99.90
8593;DHT22;4334;49.982;8.398;2022-12-24T10:01:11;10.40;99.90
8593;DHT22;4334;49.982;8.398;2022-12-24T10:03:39;10.30;99.90
8593;DHT22;4334;49.982;8.398;2022-12-24T10:06:09;10.40;99.90
8593;DHT22;4334;49.982;8.398;2022-12-24T10:08:51;10.80;99.90
8593;DHT22;4334;49.982;8.398;2022-12-24T10:11:30;11.30;99.90
8593;DHT22;4334;49.982;8.398;2022-12-24T10:14:07;11.60;99.90
8593;DHT22;4334;49.982;8.398;2022-12-24T10:16:43;12.10;99.90
8593;DHT22;4334;49.982;8.398;2022-12-24T10:19:19;12.40;99.90
8593;DHT22;4334;49.982;8.398;2022-12-24T10:21:57;12.50;99.90
8593;DHT22;4334;49.982;8.398;2022-12-24T10:24:31;13.20;99.90
8593;DHT22;4334;49.982;8.398;2022-12-24T10:27:04;13.70;99.90
8593;DHT22;4334;49.982;8.398;2022-12-24T10:29:35;13.70;99.90
8593;DHT22;4334;49.982;8.398;2022-12-24T10:32:13;16.40;99.90
8593;DHT22;4334;49.982;8.398;2022-12-24T10:34:44;13.40;99.90
8593;DHT22;4334;49.982;8.398;2022-12-24T10:37:15;13.20;99.90
8593;DHT22;4334;49.982;8.398;2022-12-24T10:39:43;13.10;99.90
8593;DHT22;4334;49.982;8.398;2022-12-24T10:42:10;13.00;99.90
8593;DHT22;4334;49.982;8.398;2022-12-24T10:44:39;14.10;99.90
8593;DHT22;4334;49.982;8.398;2022-12-24T10:47:07;12.90;99.90
8593;DHT22;4334;49.982;8.398;2022-12-24T10:49:39;12.90;99.90
8593;DHT22;4334;49.982;8.398;2022-12-24T10:52:11;12.80;99.90
8593;DHT22;4334;49.982;8.398;2022-12-24T10:55:04;12.60;99.90
8593;DHT22;4334;49.982;8.398;2022-12-24T10:57:31;12.50;99.90
8593;DHT22;4334;49.982;8.398;2022-12-24T10:59:59;12.50;99.90
8593;DHT22;4334;49.982;8.398;2022-12-24T11:02:28;15.60;99.90
8593;DHT22;4334;49.982;8.398;2022-12-24T11:04:56;12.50;99.90
8593;DHT22;4334;49.982;8.398;2022-12-24T11:07:27;12.60;99.90
8593;DHT22;4334;49.982;8.398;2022-12-24T11:09:55;12.60;99.90
8593;DHT22;4334;49.982;8.398;2022-12-24T11:12:25;12.70;99.90
8593;DHT22;4334;49.982;8.398;2022-12-24T11:15:01;12.70;99.90
8593;DHT22;4334;49.982;8.398;2022-12-24T11:17:28;12.70;99.90
8593;DHT22;4334;49.982;8.398;2022-12-24T11:19:56;12.70;99.90
8593;DHT22;4334;49.982;8.398;2022-12-24T11:22:26;12.70;99.90
8593;DHT22;4334;49.982;8.398;2022-12-24T11:25:00;12.60;99.90
8593;DHT22;4334;49.982;8.398;2022-12-24T11:27:37;12.50;99.90
8593;DHT22;4334;49.982;8.398;2022-12-24T11:30:24;12.30;99.90
8593;DHT22;4334;49.982;8.398;2022-12-24T11:33:18;12.30;99.90
8593;DHT22;4334;49.982;8.398;2022-12-24T11:35:48;12.20;99.90
8593;DHT22;4334;49.982;8.398;2022-12-24T11:38:20;12.40;99.90
8593;DHT22;4334;49.982;8.398;2022-12-24T11:40:49;16.00;99.90
8593;DHT22;4334;49.982;8.398;2022-12-24T11:43:22;12.60;99.90
8593;DHT22;4334;49.982;8.398;2022-12-24T11:45:51;12.60;99.90
8593;DHT22;4334;49.982;8.398;2022-12-24T11:48:26;12.60;99.90
8593;DHT22;4334;49.982;8.398;2022-12-24T11:50:58;12.60;99.90
8593;DHT22;4334;49.982;8.398;2022-12-24T11:53:33;12.50;99.90
8593;DHT22;4334;49.982;8.398;2022-12-24T11:56:05;12.50;99.90
8593;DHT22;4334;49.982;8.398;2022-12-24T11:58:37;12.70;99.90
8593;DHT22;4334;49.982;8.398;2022-12-24T12:01:14;13.00;99.90
8593;DHT22;4334;49.982;8.398;2022-12-24T12:03:46;13.20;99.90
8593;DHT22;4334;49.982;8.398;2022-12-24T12:06:23;14.80;99.90
8593;DHT22;4334;49.982;8.398;2022-12-24T12:08:56;13.30;99.90
8593;DHT22;4334;49.982;8.398;2022-12-24T12:11:25;13.30;99.90
8593;DHT22;4334;49.982;8.398;2022-12-24T12:13:54;13.30;99.90
8593;DHT22;4334;49.982;8.398;2022-12-24T12:16:25;13.30;99.90
8593;DHT22;4334;49.982;8.398;2022-12-24T12:18:59;13.20;99.90
8593;DHT22;4334;49.982;8.398;2022-12-24T12:21:33;13.10;99.90
8593;DHT22;4334;49.982;8.398;2022-12-24T12:24:03;13.10;99.90
8593;DHT22;4334;49.982;8.398;2022-12-24T12:26:32;13.10;99.90
8593;DHT22;4334;49.982;8.398;2022-12-24T12:29:02;13.10;99.90
8593;DHT22;4334;49.982;8.398;2022-12-24T12:31:34;13.00;99.90
8593;DHT22;4334;49.982;8.398;2022-12-24T12:34:04;13.00;99.90
8593;DHT22;4334;49.982;8.398;2022-12-24T12:36:39;12.90;99.90
8593;DHT22;4334;49.982;8.398;2022-12-24T12:39:09;12.80;99.90
8593;DHT22;4334;49.982;8.398;2022-12-24T12:41:45;12.70;99.90
8593;DHT22;4334;49.982;8.398;2022-12-24T12:44:48;12.70;99.90
8593;DHT22;4334;49.982;8.398;2022-12-24T12:47:30;12.90;99.90
8593;DHT22;4334;49.982;8.398;2022-12-24T12:50:08;13.10;99.90
8593;DHT22;4334;49.982;8.398;2022-12-24T12:52:52;13.50;99.90
8593;DHT22;4334;49.982;8.398;2022-12-24T12:55:32;14.10;99.90
8593;DHT22;4334;49.982;8.398;2022-12-24T12:58:04;13.40;99.90
8593;DHT22;4334;49.982;8.398;2022-12-24T13:00:38;13.40;99.90
8593;DHT22;4334;49.982;8.398;2022-12-24T13:03:34;13.40;99.90
8593;DHT22;4334;49.982;8.398;2022-12-24T13:06:27;13.10;99.90
8593;DHT22;4334;49.982;8.398;2022-12-24T13:12:02;13.20;99.90
8593;DHT22;4334;49.982;8.398;2022-12-24T13:15:00;13.40;99.90
8593;DHT22;4334;49.982;8.398;2022-12-24T13:17:58;13.60;99.90
8593;DHT22;4334;49.982;8.398;2022-12-24T13:20:29;13.60;99.90
8593;DHT22;4334;49.982;8.398;2022-12-24T13:22:58;13.50;99.90
8593;DHT22;4334;49.982;8.398;2022-12-24T13:25:30;13.20;99.90
8593;DHT22;4334;49.982;8.398;2022-12-24T13:28:29;13.00;99.90
8593;DHT22;4334;49.982;8.398;2022-12-24T13:31:27;12.90;99.90
8593;DHT22;4334;49.982;8.398;2022-12-24T13:34:02;12.80;99.90
8593;DHT22;4334;49.982;8.398;2022-12-24T13:37:04;12.70;99.90
8593;DHT22;4334;49.982;8.398;2022-12-24T13:40:00;12.70;99.90
8593;DHT22;4334;49.982;8.398;2022-12-24T13:43:05;12.50;99.90
8593;DHT22;4334;49.982;8.398;2022-12-24T13:45:46;12.30;99.90
8593;DHT22;4334;49.982;8.398;2022-12-24T13:48:28;12.10;99.90
8593;DHT22;4334;49.982;8.398;2022-12-24T13:50:59;12.00;99.90
8593;DHT22;4334;49.982;8.398;2022-12-24T13:53:29;11.90;99.90
8593;DHT22;4334;49.982;8.398;2022-12-24T13:56:02;11.80;99.90
8593;DHT22;4334;49.982;8.398;2022-12-24T13:58:29;11.80;99.90
8593;DHT22;4334;49.982;8.398;2022-12-24T14:00:59;11.80;99.90
8593;DHT22;4334;49.982;8.398;2022-12-24T14:03:29;11.90;99.90
8593;DHT22;4334;49.982;8.398;2022-12-24T14:06:00;11.90;99.90
8593;DHT22;4334;49.982;8.398;2022-12-24T14:08:34;12.00;99.90
8593;DHT22;4334;49.982;8.398;2022-12-24T14:11:08;13.20;99.90
8593;DHT22;4334;49.982;8.398;2022-12-24T14:16:50;12.00;99.90
8593;DHT22;4334;49.982;8.398;2022-12-24T14:19:20;12.00;99.90
8593;DHT22;4334;49.982;8.398;2022-12-24T14:21:53;12.00;99.90
8593;DHT22;4334;49.982;8.398;2022-12-24T14:24:23;11.90;99.90
8593;DHT22;4334;49.982;8.398;2022-12-24T14:26:53;11.90;99.90
8593;DHT22;4334;49.982;8.398;2022-12-24T14:29:25;11.80;99.90
8593;DHT22;4334;49.982;8.398;2022-12-24T14:31:55;11.60;99.90
8593;DHT22;4334;49.982;8.398;2022-12-24T14:34:22;11.50;99.90
8593;DHT22;4334;49.982;8.398;2022-12-24T14:36:53;11.30;99.90
8593;DHT22;4334;49.982;8.398;2022-12-24T14:39:24;14.60;99.90
8593;DHT22;4334;49.982;8.398;2022-12-24T14:42:00;11.00;99.90
8593;DHT22;4334;49.982;8.398;2022-12-24T14:44:35;11.00;99.90
8593;DHT22;4334;49.982;8.398;2022-12-24T14:47:16;10.90;99.90
8593;DHT22;4334;49.982;8.398;2022-12-24T14:49:57;10.80;99.90
8593;DHT22;4334;49.982;8.398;2022-12-24T14:52:33;10.90;99.90
8593;DHT22;4334;49.982;8.398;2022-12-24T14:55:29;10.80;99.90
8593;DHT22;4334;49.982;8.398;2022-12-24T14:58:30;10.70;99.90
8593;DHT22;4334;49.982;8.398;2022-12-24T15:00:58;10.70;99.90
8593;DHT22;4334;49.982;8.398;2022-12-24T15:03:28;10.60;99.90
8593;DHT22;4334;49.982;8.398;2022-12-24T15:05:58;10.60;99.90
8593;DHT22;4334;49.982;8.398;2022-12-24T15:08:31;10.60;99.90
8593;DHT22;4334;49.982;8.398;2022-12-24T15:11:02;10.60;99.90
8593;DHT22;4334;49.982;8.398;2022-12-24T15:13:33;11.50;99.90
8593;DHT22;4334;49.982;8.398;2022-12-24T15:16:01;10.30;99.90
8593;DHT22;4334;49.982;8.398;2022-12-24T15:18:31;10.20;99.90
8593;DHT22;4334;49.982;8.398;2022-12-24T15:21:00;10.10;99.90
8593;DHT22;4334;49.982;8.398;2022-12-24T15:23:29;10.00;99.90
8593;DHT22;4334;49.982;8.398;2022-12-24T15:26:06;9.80;99.90
8593;DHT22;4334;49.982;8.398;2022-12-24T15:28:35;9.90;99.90
8593;DHT22;4334;49.982;8.398;2022-12-24T15:31:06;9.90;99.90
8593;DHT22;4334;49.982;8.398;2022-12-24T15:33:35;9.90;99.90
8593;DHT22;4334;49.982;8.398;2022-12-24T15:36:04;9.90;99.90
8593;DHT22;4334;49.982;8.398;2022-12-24T15:38:34;9.90;99.90
8593;DHT22;4334;49.982;8.398;2022-12-24T15:41:05;9.90;99.90
8593;DHT22;4334;49.982;8.398;2022-12-24T15:43:32;10.70;99.90
8593;DHT22;4334;49.982;8.398;2022-12-24T15:45:59;10.10;99.90
8593;DHT22;4334;49.982;8.398;2022-12-24T15:48:27;10.00;99.90
8593;DHT22;4334;49.982;8.398;2022-12-24T15:50:58;10.90;99.90
8593;DHT22;4334;49.982;8.398;2022-12-24T15:53:29;9.80;99.90
8593;DHT22;4334;49.982;8.398;2022-12-24T15:56:05;9.80;99.90
8593;DHT22;4334;49.982;8.398;2022-12-24T15:58:33;9.80;99.90
8593;DHT22;4334;49.982;8.398;2022-12-24T16:01:03;9.90;99.90
8593;DHT22;4334;49.982;8.398;2022-12-24T16:03:31;9.80;99.90
8593;DHT22;4334;49.982;8.398;2022-12-24T16:06:00;9.70;99.90
8593;DHT22;4334;49.982;8.398;2022-12-24T16:08:29;9.80;99.90
8593;DHT22;4334;49.982;8.398;2022-12-24T16:11:12;9.60;99.90
8593;DHT22;4334;49.982;8.398;2022-12-24T16:13:50;9.60;99.90
8593;DHT22;4334;49.982;8.398;2022-12-24T16:16:28;9.70;99.90
8593;DHT22;4334;49.982;8.398;2022-12-24T16:18:57;9.70;99.90
8593;DHT22;4334;49.982;8.398;2022-12-24T16:21:29;9.90;99.90
8593;DHT22;4334;49.982;8.398;2022-12-24T16:24:01;13.60;99.90
8593;DHT22;4334;49.982;8.398;2022-12-24T16:26:30;10.10;99.90
8593;DHT22;4334;49.982;8.398;2022-12-24T16:28:57;10.10;99.90
8593;DHT22;4334;49.982;8.398;2022-12-24T16:31:29;10.20;99.90
8593;DHT22;4334;49.982;8.398;2022-12-24T16:33:57;10.20;99.90
8593;DHT22;4334;49.982;8.398;2022-12-24T16:36:25;10.20;99.90
8593;DHT22;4334;49.982;8.398;2022-12-24T16:38:52;10.30;99.90